sensor_id;sensor_type;location;lat;lon;timestamp;temperature;humidity
8565;DHT22;4320;51.498;6.556;2023-05-24T00:00:55;11.50;1.00
8565;DHT22;4320;51.498;6.556;2023-05-24T00:03:21;11.50;1.00
8565;DHT22;4320;51.498;6.556;2023-05-24T00:05:47;11.40;1.00
8565;DHT22;4320;51.498;6.556;2023-05-24T00:08:13;11.40;1.00
8565;DHT22;4320;51.498;6.556;2023-05-24T00:10:41;11.40;1.00
8565;DHT22;4320;51.498;6.556;2023-05-24T00:13:06;11.40;1.00
8565;DHT22;4320;51.498;6.556;2023-05-24T00:15:32;11.50;1.00
8565;DHT22;4320;51.498;6.556;2023-05-24T00:17:57;11.50;1.00
8565;DHT22;4320;51.498;6.556;2023-05-24T00:20:23;11.40;1.00
8565;DHT22;4320;51.498;6.556;2023-05-24T00:22:49;11.40;1.00
8565;DHT22;4320;51.498;6.556;2023-05-24T00:25:14;11.40;1.00
8565;DHT22;4320;51.498;6.556;2023-05-24T00:27:40;11.40;1.00
8565;DHT22;4320;51.498;6.556;2023-05-24T00:30:06;11.40;1.00
8565;DHT22;4320;51.498;6.556;2023-05-24T00:32:32;11.50;1.00
8565;DHT22;4320;51.498;6.556;2023-05-24T00:34:58;11.40;1.00
8565;DHT22;4320;51.498;6.556;2023-05-24T00:37:23;11.40;1.00
8565;DHT22;4320;51.498;6.556;2023-05-24T00:39:49;11.40;1.00
8565;DHT22;4320;51.498;6.556;2023-05-24T00:42:15;11.50;1.00
8565;DHT22;4320;51.498;6.556;2023-05-24T00:44:40;11.40;1.00
8565;DHT22;4320;51.498;6.556;2023-05-24T00:47:06;11.30;1.00
8565;DHT22;4320;51.498;6.556;2023-05-24T00:49:32;11.20;1.00
8565;DHT22;4320;51.498;6.556;2023-05-24T00:51:58;11.20;1.00
8565;DHT22;4320;51.498;6.556;2023-05-24T00:54:24;11.20;1.00
8565;DHT22;4320;51.498;6.556;2023-05-24T00:56:51;11.20;1.00
8565;DHT22;4320;51.498;6.556;2023-05-24T00:59:17;11.20;1.00
8565;DHT22;4320;51.498;6.556;2023-05-24T01:01:43;11.30;1.00
8565;DHT22;4320;51.498;6.556;2023-05-24T01:04:11;11.30;1.00
8565;DHT22;4320;51.498;6.556;2023-05-24T01:10:05;11.30;1.00
8565;DHT22;4320;51.498;6.556;2023-05-24T01:15:32;11.10;1.00
8565;DHT22;4320;51.498;6.556;2023-05-24T01:18:17;11.00;1.00
8565;DHT22;4320;51.498;6.556;2023-05-24T01:20:52;10.90;1.00
8565;DHT22;4320;51.498;6.556;2023-05-24T01:23:33;10.80;1.00
8565;DHT22;4320;51.498;6.556;2023-05-24T01:28:47;10.80;1.00
8565;DHT22;4320;51.498;6.556;2023-05-24T01:31:15;10.80;1.00
8565;DHT22;4320;51.498;6.556;2023-05-24T01:33:42;10.70;1.00
8565;DHT22;4320;51.498;6.556;2023-05-24T01:36:08;10.50;1.00
8565;DHT22;4320;51.498;6.556;2023-05-24T01:38:35;10.50;1.00
8565;DHT22;4320;51.498;6.556;2023-05-24T01:41:09;10.50;1.00
8565;DHT22;4320;51.498;6.556;2023-05-24T01:43:42;10.60;1.00
8565;DHT22;4320;51.498;6.556;2023-05-24T01:46:33;10.60;1.00
8565;DHT22;4320;51.498;6.556;2023-05-24T01:51:59;10.30;1.00
8565;DHT22;4320;51.498;6.556;2023-05-24T01:54:33;10.30;1.00
8565;DHT22;4320;51.498;6.556;2023-05-24T01:57:04;10.20;2.80
8565;DHT22;4320;51.498;6.556;2023-05-24T01:59:32;10.20;5.30
8565;DHT22;4320;51.498;6.556;2023-05-24T02:01:59;10.20;5.80
8565;DHT22;4320;51.498;6.556;2023-05-24T02:04:25;10.30;5.30
8565;DHT22;4320;51.498;6.556;2023-05-24T02:06:50;10.30;6.30
8565;DHT22;4320;51.498;6.556;2023-05-24T02:09:16;10.30;7.50
8565;DHT22;4320;51.498;6.556;2023-05-24T02:11:42;10.10;13.30
8565;DHT22;4320;51.498;6.556;2023-05-24T02:14:07;10.00;17.20
8565;DHT22;4320;51.498;6.556;2023-05-24T02:16:33;10.00;21.10
8565;DHT22;4320;51.498;6.556;2023-05-24T02:18:59;9.90;22.80
8565;DHT22;4320;51.498;6.556;2023-05-24T02:21:26;10.00;21.30
8565;DHT22;4320;51.498;6.556;2023-05-24T02:23:51;10.00;23.20
8565;DHT22;4320;51.498;6.556;2023-05-24T02:26:17;10.00;24.60
8565;DHT22;4320;51.498;6.556;2023-05-24T02:28:43;10.10;22.00
8565;DHT22;4320;51.498;6.556;2023-05-24T02:31:09;10.10;27.70
8565;DHT22;4320;51.498;6.556;2023-05-24T02:33:35;10.10;28.10
8565;DHT22;4320;51.498;6.556;2023-05-24T02:36:01;10.10;29.30
8565;DHT22;4320;51.498;6.556;2023-05-24T02:38:26;10.10;26.00
8565;DHT22;4320;51.498;6.556;2023-05-24T02:40:52;10.10;26.30
8565;DHT22;4320;51.498;6.556;2023-05-24T02:43:17;10.00;28.30
8565;DHT22;4320;51.498;6.556;2023-05-24T02:45:43;10.10;25.90
8565;DHT22;4320;51.498;6.556;2023-05-24T02:48:09;10.10;27.70
8565;DHT22;4320;51.498;6.556;2023-05-24T02:50:34;10.10;29.60
8565;DHT22;4320;51.498;6.556;2023-05-24T02:53:01;10.10;27.90
8565;DHT22;4320;51.498;6.556;2023-05-24T02:55:26;10.10;28.90
8565;DHT22;4320;51.498;6.556;2023-05-24T02:57:53;10.10;30.00
8565;DHT22;4320;51.498;6.556;2023-05-24T03:00:19;10.10;30.80
8565;DHT22;4320;51.498;6.556;2023-05-24T03:02:45;10.10;31.10
8565;DHT22;4320;51.498;6.556;2023-05-24T03:05:12;10.10;29.30
8565;DHT22;4320;51.498;6.556;2023-05-24T03:07:37;10.10;28.10
8565;DHT22;4320;51.498;6.556;2023-05-24T03:10:03;10.00;31.70
8565;DHT22;4320;51.498;6.556;2023-05-24T03:12:29;10.00;29.60
8565;DHT22;4320;51.498;6.556;2023-05-24T03:14:55;9.90;32.70
8565;DHT22;4320;51.498;6.556;2023-05-24T03:17:20;9.90;32.30
8565;DHT22;4320;51.498;6.556;2023-05-24T03:19:46;9.90;30.90
8565;DHT22;4320;51.498;6.556;2023-05-24T03:22:11;9.80;35.50
8565;DHT22;4320;51.498;6.556;2023-05-24T03:24:37;9.80;33.70
8565;DHT22;4320;51.498;6.556;2023-05-24T03:27:04;9.80;34.50
8565;DHT22;4320;51.498;6.556;2023-05-24T03:29:30;9.80;35.10
8565;DHT22;4320;51.498;6.556;2023-05-24T03:31:55;9.70;36.10
8565;DHT22;4320;51.498;6.556;2023-05-24T03:34:21;9.60;40.00
8565;DHT22;4320;51.498;6.556;2023-05-24T03:36:47;9.60;41.10
8565;DHT22;4320;51.498;6.556;2023-05-24T03:39:12;9.70;41.80
8565;DHT22;4320;51.498;6.556;2023-05-24T03:41:38;9.70;40.80
8565;DHT22;4320;51.498;6.556;2023-05-24T03:44:04;9.70;40.20
8565;DHT22;4320;51.498;6.556;2023-05-24T03:46:29;9.70;39.50
8565;DHT22;4320;51.498;6.556;2023-05-24T03:48:55;9.70;43.80
8565;DHT22;4320;51.498;6.556;2023-05-24T03:51:21;9.80;44.20
8565;DHT22;4320;51.498;6.556;2023-05-24T03:53:56;9.80;45.10
8565;DHT22;4320;51.498;6.556;2023-05-24T03:56:22;9.80;43.00
8565;DHT22;4320;51.498;6.556;2023-05-24T03:58:48;9.70;49.40
8565;DHT22;4320;51.498;6.556;2023-05-24T04:01:16;9.70;52.40
8565;DHT22;4320;51.498;6.556;2023-05-24T04:03:42;9.70;54.90
8565;DHT22;4320;51.498;6.556;2023-05-24T04:06:10;9.60;57.90
8565;DHT22;4320;51.498;6.556;2023-05-24T04:08:36;9.60;54.70
8565;DHT22;4320;51.498;6.556;2023-05-24T04:11:02;9.70;53.60
8565;DHT22;4320;51.498;6.556;2023-05-24T04:13:27;9.70;50.70
8565;DHT22;4320;51.498;6.556;2023-05-24T04:15:53;9.70;52.60
8565;DHT22;4320;51.498;6.556;2023-05-24T04:18:18;9.60;56.70
8565;DHT22;4320;51.498;6.556;2023-05-24T04:20:44;9.60;68.40
8565;DHT22;4320;51.498;6.556;2023-05-24T04:23:10;9.70;69.80
8565;DHT22;4320;51.498;6.556;2023-05-24T04:25:35;9.80;67.90
8565;DHT22;4320;51.498;6.556;2023-05-24T04:28:01;9.90;66.30
8565;DHT22;4320;51.498;6.556;2023-05-24T04:30:28;9.90;66.00
8565;DHT22;4320;51.498;6.556;2023-05-24T04:32:55;10.00;63.90
8565;DHT22;4320;51.498;6.556;2023-05-24T04:35:22;10.00;63.50
8565;DHT22;4320;51.498;6.556;2023-05-24T04:37:48;9.90;68.60
8565;DHT22;4320;51.498;6.556;2023-05-24T04:40:14;9.90;70.10
8565;DHT22;4320;51.498;6.556;2023-05-24T04:42:45;10.00;70.80
8565;DHT22;4320;51.498;6.556;2023-05-24T04:45:11;10.00;70.00
8565;DHT22;4320;51.498;6.556;2023-05-24T04:47:37;10.10;71.30
8565;DHT22;4320;51.498;6.556;2023-05-24T04:50:03;10.20;73.00
8565;DHT22;4320;51.498;6.556;2023-05-24T04:52:29;10.20;74.30
8565;DHT22;4320;51.498;6.556;2023-05-24T04:54:55;10.20;75.20
8565;DHT22;4320;51.498;6.556;2023-05-24T04:57:22;10.40;77.50
8565;DHT22;4320;51.498;6.556;2023-05-24T04:59:48;10.40;75.80
8565;DHT22;4320;51.498;6.556;2023-05-24T05:02:13;10.50;75.20
8565;DHT22;4320;51.498;6.556;2023-05-24T05:04:39;10.70;71.20
8565;DHT22;4320;51.498;6.556;2023-05-24T05:07:05;10.70;70.90
8565;DHT22;4320;51.498;6.556;2023-05-24T05:09:31;10.80;66.60
8565;DHT22;4320;51.498;6.556;2023-05-24T05:11:56;10.80;64.50
8565;DHT22;4320;51.498;6.556;2023-05-24T05:14:22;10.80;65.90
8565;DHT22;4320;51.498;6.556;2023-05-24T05:16:48;10.80;64.70
8565;DHT22;4320;51.498;6.556;2023-05-24T05:19:13;11.10;63.90
8565;DHT22;4320;51.498;6.556;2023-05-24T05:21:39;11.20;57.90
8565;DHT22;4320;51.498;6.556;2023-05-24T05:24:05;11.10;54.70
8565;DHT22;4320;51.498;6.556;2023-05-24T05:26:30;11.10;56.10
8565;DHT22;4320;51.498;6.556;2023-05-24T05:28:57;11.20;53.70
8565;DHT22;4320;51.498;6.556;2023-05-24T05:31:23;11.30;51.70
8565;DHT22;4320;51.498;6.556;2023-05-24T05:33:49;11.50;48.50
8565;DHT22;4320;51.498;6.556;2023-05-24T05:36:15;11.60;45.90
8565;DHT22;4320;51.498;6.556;2023-05-24T05:38:41;11.60;44.80
8565;DHT22;4320;51.498;6.556;2023-05-24T05:41:07;11.60;46.20
8565;DHT22;4320;51.498;6.556;2023-05-24T05:43:33;11.60;42.10
8565;DHT22;4320;51.498;6.556;2023-05-24T05:45:58;11.70;38.40
8565;DHT22;4320;51.498;6.556;2023-05-24T05:48:25;11.80;36.30
8565;DHT22;4320;51.498;6.556;2023-05-24T05:50:51;11.90;34.20
8565;DHT22;4320;51.498;6.556;2023-05-24T05:53:16;12.20;31.50
8565;DHT22;4320;51.498;6.556;2023-05-24T05:55:42;12.20;27.00
8565;DHT22;4320;51.498;6.556;2023-05-24T05:58:07;12.50;25.40
8565;DHT22;4320;51.498;6.556;2023-05-24T06:00:33;12.80;22.00
8565;DHT22;4320;51.498;6.556;2023-05-24T06:02:58;12.80;18.80
8565;DHT22;4320;51.498;6.556;2023-05-24T06:05:24;12.80;17.80
8565;DHT22;4320;51.498;6.556;2023-05-24T06:07:50;12.80;15.90
8565;DHT22;4320;51.498;6.556;2023-05-24T06:10:15;12.60;10.90
8565;DHT22;4320;51.498;6.556;2023-05-24T06:12:41;12.60;11.10
8565;DHT22;4320;51.498;6.556;2023-05-24T06:15:07;12.70;11.00
8565;DHT22;4320;51.498;6.556;2023-05-24T06:17:33;12.80;10.30
8565;DHT22;4320;51.498;6.556;2023-05-24T06:19:59;12.70;6.50
8565;DHT22;4320;51.498;6.556;2023-05-24T06:22:25;12.80;7.30
8565;DHT22;4320;51.498;6.556;2023-05-24T06:24:54;12.90;8.80
8565;DHT22;4320;51.498;6.556;2023-05-24T06:27:19;12.90;9.00
8565;DHT22;4320;51.498;6.556;2023-05-24T06:29:45;13.10;8.00
8565;DHT22;4320;51.498;6.556;2023-05-24T06:32:11;13.30;4.80
8565;DHT22;4320;51.498;6.556;2023-05-24T06:34:37;13.60;1.00
8565;DHT22;4320;51.498;6.556;2023-05-24T06:37:02;13.60;1.00
8565;DHT22;4320;51.498;6.556;2023-05-24T06:39:28;13.60;1.00
8565;DHT22;4320;51.498;6.556;2023-05-24T06:41:54;13.70;1.00
8565;DHT22;4320;51.498;6.556;2023-05-24T06:44:20;13.80;1.00
8565;DHT22;4320;51.498;6.556;2023-05-24T06:46:47;14.00;1.00
8565;DHT22;4320;51.498;6.556;2023-05-24T06:49:13;14.40;1.00
8565;DHT22;4320;51.498;6.556;2023-05-24T06:51:39;14.50;1.00
8565;DHT22;4320;51.498;6.556;2023-05-24T06:54:04;14.60;1.00
8565;DHT22;4320;51.498;6.556;2023-05-24T06:56:30;14.70;1.00
8565;DHT22;4320;51.498;6.556;2023-05-24T06:58:58;14.60;1.00
8565;DHT22;4320;51.498;6.556;2023-05-24T07:01:23;14.80;1.00
8565;DHT22;4320;51.498;6.556;2023-05-24T07:03:49;14.80;1.00
8565;DHT22;4320;51.498;6.556;2023-05-24T07:06:15;14.90;1.00
8565;DHT22;4320;51.498;6.556;2023-05-24T07:08:41;15.00;1.00
8565;DHT22;4320;51.498;6.556;2023-05-24T07:11:07;15.00;1.00
8565;DHT22;4320;51.498;6.556;2023-05-24T07:13:33;14.90;1.00
8565;DHT22;4320;51.498;6.556;2023-05-24T07:15:59;14.80;1.00
8565;DHT22;4320;51.498;6.556;2023-05-24T07:18:25;14.50;1.00
8565;DHT22;4320;51.498;6.556;2023-05-24T07:20:51;14.20;1.00
8565;DHT22;4320;51.498;6.556;2023-05-24T07:23:16;14.10;1.00
8565;DHT22;4320;51.498;6.556;2023-05-24T07:25:42;14.00;1.00
8565;DHT22;4320;51.498;6.556;2023-05-24T07:28:09;14.10;1.00
8565;DHT22;4320;51.498;6.556;2023-05-24T07:30:35;14.20;1.00
8565;DHT22;4320;51.498;6.556;2023-05-24T07:33:01;14.40;1.00
8565;DHT22;4320;51.498;6.556;2023-05-24T07:35:27;14.80;1.00
8565;DHT22;4320;51.498;6.556;2023-05-24T07:37:53;14.90;1.00
8565;DHT22;4320;51.498;6.556;2023-05-24T07:40:19;15.00;1.00
8565;DHT22;4320;51.498;6.556;2023-05-24T07:42:45;15.00;1.00
8565;DHT22;4320;51.498;6.556;2023-05-24T07:45:12;15.00;1.00
8565;DHT22;4320;51.498;6.556;2023-05-24T07:47:38;14.90;1.00
8565;DHT22;4320;51.498;6.556;2023-05-24T07:50:04;14.90;1.00
8565;DHT22;4320;51.498;6.556;2023-05-24T07:52:30;15.40;1.00
8565;DHT22;4320;51.498;6.556;2023-05-24T07:54:55;15.50;1.00
8565;DHT22;4320;51.498;6.556;2023-05-24T07:57:21;15.70;1.00
8565;DHT22;4320;51.498;6.556;2023-05-24T07:59:47;15.60;1.00
8565;DHT22;4320;51.498;6.556;2023-05-24T08:02:13;15.90;1.00
8565;DHT22;4320;51.498;6.556;2023-05-24T08:04:39;15.80;1.00
8565;DHT22;4320;51.498;6.556;2023-05-24T08:07:05;15.60;1.00
8565;DHT22;4320;51.498;6.556;2023-05-24T08:09:31;15.50;1.00
8565;DHT22;4320;51.498;6.556;2023-05-24T08:12:04;15.20;1.00
8565;DHT22;4320;51.498;6.556;2023-05-24T08:14:31;15.10;1.00
8565;DHT22;4320;51.498;6.556;2023-05-24T08:16:56;14.90;1.00
8565;DHT22;4320;51.498;6.556;2023-05-24T08:19:22;14.70;1.00
8565;DHT22;4320;51.498;6.556;2023-05-24T08:21:48;14.60;1.00
8565;DHT22;4320;51.498;6.556;2023-05-24T08:24:14;14.40;1.00
8565;DHT22;4320;51.498;6.556;2023-05-24T08:26:39;14.40;1.00
8565;DHT22;4320;51.498;6.556;2023-05-24T08:29:05;14.40;1.00
8565;DHT22;4320;51.498;6.556;2023-05-24T08:31:31;14.40;1.00
8565;DHT22;4320;51.498;6.556;2023-05-24T08:34:00;14.50;1.00
8565;DHT22;4320;51.498;6.556;2023-05-24T08:36:26;14.70;1.00
8565;DHT22;4320;51.498;6.556;2023-05-24T08:38:52;14.90;1.00
8565;DHT22;4320;51.498;6.556;2023-05-24T08:41:18;15.30;1.00
8565;DHT22;4320;51.498;6.556;2023-05-24T08:43:44;15.30;1.00
8565;DHT22;4320;51.498;6.556;2023-05-24T08:46:11;15.40;1.00
8565;DHT22;4320;51.498;6.556;2023-05-24T08:48:44;15.40;1.00
8565;DHT22;4320;51.498;6.556;2023-05-24T08:51:15;15.50;1.00
8565;DHT22;4320;51.498;6.556;2023-05-24T08:53:43;15.50;1.00
8565;DHT22;4320;51.498;6.556;2023-05-24T08:56:16;15.50;1.00
8565;DHT22;4320;51.498;6.556;2023-05-24T08:58:43;15.50;1.00
8565;DHT22;4320;51.498;6.556;2023-05-24T09:01:10;15.80;1.00
8565;DHT22;4320;51.498;6.556;2023-05-24T09:03:37;16.00;1.00
8565;DHT22;4320;51.498;6.556;2023-05-24T09:06:05;16.20;1.00
8565;DHT22;4320;51.498;6.556;2023-05-24T09:08:31;16.20;1.00
8565;DHT22;4320;51.498;6.556;2023-05-24T09:11:00;16.30;1.00
8565;DHT22;4320;51.498;6.556;2023-05-24T09:13:27;16.70;1.00
8565;DHT22;4320;51.498;6.556;2023-05-24T09:15:52;16.90;1.00
8565;DHT22;4320;51.498;6.556;2023-05-24T09:18:18;17.00;1.00
8565;DHT22;4320;51.498;6.556;2023-05-24T09:20:44;17.00;1.00
8565;DHT22;4320;51.498;6.556;2023-05-24T09:23:10;16.80;1.00
8565;DHT22;4320;51.498;6.556;2023-05-24T09:25:42;16.80;1.00
8565;DHT22;4320;51.498;6.556;2023-05-24T09:28:08;16.90;1.00
8565;DHT22;4320;51.498;6.556;2023-05-24T09:30:35;16.80;1.00
8565;DHT22;4320;51.498;6.556;2023-05-24T09:33:00;16.60;1.00
8565;DHT22;4320;51.498;6.556;2023-05-24T09:35:26;16.60;1.00
8565;DHT22;4320;51.498;6.556;2023-05-24T09:37:59;16.70;1.00
8565;DHT22;4320;51.498;6.556;2023-05-24T09:40:26;16.70;1.00
8565;DHT22;4320;51.498;6.556;2023-05-24T09:43:08;16.90;1.00
8565;DHT22;4320;51.498;6.556;2023-05-24T09:45:46;16.80;1.00
8565;DHT22;4320;51.498;6.556;2023-05-24T09:48:16;16.90;1.00
8565;DHT22;4320;51.498;6.556;2023-05-24T09:50:42;16.80;1.00
8565;DHT22;4320;51.498;6.556;2023-05-24T09:53:12;16.60;1.00
8565;DHT22;4320;51.498;6.556;2023-05-24T09:55:37;16.30;1.00
8565;DHT22;4320;51.498;6.556;2023-05-24T09:58:05;16.30;1.00
8565;DHT22;4320;51.498;6.556;2023-05-24T10:00:34;16.40;1.00
8565;DHT22;4320;51.498;6.556;2023-05-24T10:03:03;16.60;1.00
8565;DHT22;4320;51.498;6.556;2023-05-24T10:05:30;16.70;1.00
8565;DHT22;4320;51.498;6.556;2023-05-24T10:07:56;16.60;1.00
8565;DHT22;4320;51.498;6.556;2023-05-24T10:10:28;16.50;1.00
8565;DHT22;4320;51.498;6.556;2023-05-24T10:12:55;16.50;1.00
8565;DHT22;4320;51.498;6.556;2023-05-24T10:15:21;16.40;1.00
8565;DHT22;4320;51.498;6.556;2023-05-24T10:17:46;16.40;1.00
8565;DHT22;4320;51.498;6.556;2023-05-24T10:20:12;16.40;1.00
8565;DHT22;4320;51.498;6.556;2023-05-24T10:22:59;16.60;1.00
8565;DHT22;4320;51.498;6.556;2023-05-24T10:25:27;16.80;1.00
8565;DHT22;4320;51.498;6.556;2023-05-24T10:28:09;17.10;1.00
8565;DHT22;4320;51.498;6.556;2023-05-24T10:33:26;17.30;1.00
8565;DHT22;4320;51.498;6.556;2023-05-24T10:35:52;17.20;1.00
8565;DHT22;4320;51.498;6.556;2023-05-24T10:38:22;17.70;1.00
8565;DHT22;4320;51.498;6.556;2023-05-24T10:40:49;17.90;1.00
8565;DHT22;4320;51.498;6.556;2023-05-24T10:43:16;18.20;1.00
8565;DHT22;4320;51.498;6.556;2023-05-24T10:45:47;18.40;1.00
8565;DHT22;4320;51.498;6.556;2023-05-24T10:50:39;18.10;1.00
8565;DHT22;4320;51.498;6.556;2023-05-24T10:55:59;17.60;1.00
8565;DHT22;4320;51.498;6.556;2023-05-24T11:00:57;17.40;1.00
8565;DHT22;4320;51.498;6.556;2023-05-24T11:03:23;17.50;1.00
8565;DHT22;4320;51.498;6.556;2023-05-24T11:05:52;17.60;1.00
8565;DHT22;4320;51.498;6.556;2023-05-24T11:08:44;17.50;1.00
8565;DHT22;4320;51.498;6.556;2023-05-24T11:11:12;17.40;1.00
8565;DHT22;4320;51.498;6.556;2023-05-24T11:13:39;17.30;1.00
8565;DHT22;4320;51.498;6.556;2023-05-24T11:16:05;17.20;1.00
8565;DHT22;4320;51.498;6.556;2023-05-24T11:18:31;17.10;1.00
8565;DHT22;4320;51.498;6.556;2023-05-24T11:21:01;16.90;1.00
8565;DHT22;4320;51.498;6.556;2023-05-24T11:23:28;16.80;1.00
8565;DHT22;4320;51.498;6.556;2023-05-24T11:25:55;16.70;1.00
8565;DHT22;4320;51.498;6.556;2023-05-24T11:28:21;16.60;1.00
8565;DHT22;4320;51.498;6.556;2023-05-24T11:30:48;16.50;1.00
8565;DHT22;4320;51.498;6.556;2023-05-24T11:33:18;16.40;1.00
8565;DHT22;4320;51.498;6.556;2023-05-24T11:35:52;16.40;1.00
8565;DHT22;4320;51.498;6.556;2023-05-24T11:38:18;16.50;1.00
8565;DHT22;4320;51.498;6.556;2023-05-24T11:40:46;16.70;1.00
8565;DHT22;4320;51.498;6.556;2023-05-24T11:43:14;16.70;1.00
8565;DHT22;4320;51.498;6.556;2023-05-24T11:45:41;16.80;1.00
8565;DHT22;4320;51.498;6.556;2023-05-24T11:48:08;16.70;1.00
8565;DHT22;4320;51.498;6.556;2023-05-24T11:50:42;16.60;1.00
8565;DHT22;4320;51.498;6.556;2023-05-24T11:53:12;16.50;1.00
8565;DHT22;4320;51.498;6.556;2023-05-24T11:55:39;16.50;1.00
8565;DHT22;4320;51.498;6.556;2023-05-24T11:58:33;16.50;1.00
8565;DHT22;4320;51.498;6.556;2023-05-24T12:00:55;16.40;1.00
8565;DHT22;4320;51.498;6.556;2023-05-24T12:03:21;16.40;1.00
8565;DHT22;4320;51.498;6.556;2023-05-24T12:05:47;16.40;1.00
8565;DHT22;4320;51.498;6.556;2023-05-24T12:08:13;16.40;1.00
8565;DHT22;4320;51.498;6.556;2023-05-24T12:10:42;16.40;1.00
8565;DHT22;4320;51.498;6.556;2023-05-24T12:13:22;16.40;1.00
8565;DHT22;4320;51.498;6.556;2023-05-24T12:15:52;16.40;1.00
8565;DHT22;4320;51.498;6.556;2023-05-24T12:18:23;16.40;1.00
8565;DHT22;4320;51.498;6.556;2023-05-24T12:20:49;16.30;1.00
8565;DHT22;4320;51.498;6.556;2023-05-24T12:23:17;16.40;1.00
8565;DHT22;4320;51.498;6.556;2023-05-24T12:25:43;16.40;1.00
8565;DHT22;4320;51.498;6.556;2023-05-24T12:28:09;16.40;1.00
8565;DHT22;4320;51.498;6.556;2023-05-24T12:30:36;16.40;1.00
8565;DHT22;4320;51.498;6.556;2023-05-24T12:33:02;16.60;1.00
8565;DHT22;4320;51.498;6.556;2023-05-24T12:35:28;16.70;1.00
8565;DHT22;4320;51.498;6.556;2023-05-24T12:37:58;16.80;1.00
8565;DHT22;4320;51.498;6.556;2023-05-24T12:40:24;16.90;1.00
8565;DHT22;4320;51.498;6.556;2023-05-24T12:42:52;16.90;1.00
8565;DHT22;4320;51.498;6.556;2023-05-24T12:45:21;16.90;1.00
8565;DHT22;4320;51.498;6.556;2023-05-24T12:47:54;16.90;1.00
8565;DHT22;4320;51.498;6.556;2023-05-24T12:50:21;16.90;1.00
8565;DHT22;4320;51.498;6.556;2023-05-24T12:52:48;17.20;1.00
8565;DHT22;4320;51.498;6.556;2023-05-24T12:55:18;17.30;1.00
8565;DHT22;4320;51.498;6.556;2023-05-24T12:57:44;17.50;1.00
8565;DHT22;4320;51.498;6.556;2023-05-24T13:00:18;18.20;1.00
8565;DHT22;4320;51.498;6.556;2023-05-24T13:02:44;18.70;1.00
8565;DHT22;4320;51.498;6.556;2023-05-24T13:05:09;19.10;1.00
8565;DHT22;4320;51.498;6.556;2023-05-24T13:07:36;19.40;1.00
8565;DHT22;4320;51.498;6.556;2023-05-24T13:10:02;19.70;1.00
8565;DHT22;4320;51.498;6.556;2023-05-24T13:12:28;19.90;1.00
8565;DHT22;4320;51.498;6.556;2023-05-24T13:14:53;19.90;1.00
8565;DHT22;4320;51.498;6.556;2023-05-24T13:17:19;19.70;1.00
8565;DHT22;4320;51.498;6.556;2023-05-24T13:19:45;19.70;1.00
8565;DHT22;4320;51.498;6.556;2023-05-24T13:22:12;19.60;1.00
8565;DHT22;4320;51.498;6.556;2023-05-24T13:24:38;19.80;1.00
8565;DHT22;4320;51.498;6.556;2023-05-24T13:27:03;19.80;1.00
8565;DHT22;4320;51.498;6.556;2023-05-24T13:29:29;19.80;1.00
8565;DHT22;4320;51.498;6.556;2023-05-24T13:31:55;19.60;1.00
8565;DHT22;4320;51.498;6.556;2023-05-24T13:34:21;19.40;1.00
8565;DHT22;4320;51.498;6.556;2023-05-24T13:36:50;19.30;1.00
8565;DHT22;4320;51.498;6.556;2023-05-24T13:39:16;19.50;1.00
8565;DHT22;4320;51.498;6.556;2023-05-24T13:41:41;19.60;1.00
8565;DHT22;4320;51.498;6.556;2023-05-24T13:44:07;19.70;1.00
8565;DHT22;4320;51.498;6.556;2023-05-24T13:46:33;19.50;1.00
8565;DHT22;4320;51.498;6.556;2023-05-24T13:49:00;19.20;1.00
8565;DHT22;4320;51.498;6.556;2023-05-24T13:51:26;18.90;1.00
8565;DHT22;4320;51.498;6.556;2023-05-24T13:53:51;18.70;1.00
8565;DHT22;4320;51.498;6.556;2023-05-24T13:56:17;18.50;1.00
8565;DHT22;4320;51.498;6.556;2023-05-24T13:58:43;18.40;1.00
8565;DHT22;4320;51.498;6.556;2023-05-24T14:01:09;18.30;1.00
8565;DHT22;4320;51.498;6.556;2023-05-24T14:03:35;18.40;1.00
8565;DHT22;4320;51.498;6.556;2023-05-24T14:06:01;18.60;1.00
8565;DHT22;4320;51.498;6.556;2023-05-24T14:08:27;18.80;1.00
8565;DHT22;4320;51.498;6.556;2023-05-24T14:10:52;18.90;1.00
8565;DHT22;4320;51.498;6.556;2023-05-24T14:13:18;18.80;1.00
8565;DHT22;4320;51.498;6.556;2023-05-24T14:15:44;18.80;1.00
8565;DHT22;4320;51.498;6.556;2023-05-24T14:18:11;18.70;1.00
8565;DHT22;4320;51.498;6.556;2023-05-24T14:20:37;18.80;1.00
8565;DHT22;4320;51.498;6.556;2023-05-24T14:23:05;18.70;1.00
8565;DHT22;4320;51.498;6.556;2023-05-24T14:25:30;18.70;1.00
8565;DHT22;4320;51.498;6.556;2023-05-24T14:27:56;18.70;1.00
8565;DHT22;4320;51.498;6.556;2023-05-24T14:30:22;18.80;1.00
8565;DHT22;4320;51.498;6.556;2023-05-24T14:32:48;18.90;1.00
8565;DHT22;4320;51.498;6.556;2023-05-24T14:35:13;18.90;1.00
8565;DHT22;4320;51.498;6.556;2023-05-24T14:37:39;19.00;1.00
8565;DHT22;4320;51.498;6.556;2023-05-24T14:40:05;19.10;1.00
8565;DHT22;4320;51.498;6.556;2023-05-24T14:42:31;19.00;1.00
8565;DHT22;4320;51.498;6.556;2023-05-24T14:44:56;18.90;1.00
8565;DHT22;4320;51.498;6.556;2023-05-24T14:47:22;18.80;1.00
8565;DHT22;4320;51.498;6.556;2023-05-24T14:49:48;18.80;1.00
8565;DHT22;4320;51.498;6.556;2023-05-24T14:52:13;18.70;1.00
8565;DHT22;4320;51.498;6.556;2023-05-24T14:54:39;18.70;1.00
8565;DHT22;4320;51.498;6.556;2023-05-24T14:57:05;18.70;1.00
8565;DHT22;4320;51.498;6.556;2023-05-24T14:59:32;18.70;1.00
8565;DHT22;4320;51.498;6.556;2023-05-24T15:01:58;18.70;1.00
8565;DHT22;4320;51.498;6.556;2023-05-24T15:04:23;18.80;1.00
8565;DHT22;4320;51.498;6.556;2023-05-24T15:06:49;18.80;1.00
8565;DHT22;4320;51.498;6.556;2023-05-24T15:09:15;18.70;1.00
8565;DHT22;4320;51.498;6.556;2023-05-24T15:11:41;18.60;1.00
8565;DHT22;4320;51.498;6.556;2023-05-24T15:14:06;18.60;1.00
8565;DHT22;4320;51.498;6.556;2023-05-24T15:16:32;18.60;1.00
8565;DHT22;4320;51.498;6.556;2023-05-24T15:18:58;18.50;1.00
8565;DHT22;4320;51.498;6.556;2023-05-24T15:21:23;18.60;1.00
8565;DHT22;4320;51.498;6.556;2023-05-24T15:23:49;18.60;1.00
8565;DHT22;4320;51.498;6.556;2023-05-24T15:26:14;18.50;1.00
8565;DHT22;4320;51.498;6.556;2023-05-24T15:28:40;18.50;1.00
8565;DHT22;4320;51.498;6.556;2023-05-24T15:31:06;18.40;1.00
8565;DHT22;4320;51.498;6.556;2023-05-24T15:33:32;18.40;1.00
8565;DHT22;4320;51.498;6.556;2023-05-24T15:35:58;18.30;1.00
8565;DHT22;4320;51.498;6.556;2023-05-24T15:38:23;18.20;1.00
8565;DHT22;4320;51.498;6.556;2023-05-24T15:40:49;18.10;1.00
8565;DHT22;4320;51.498;6.556;2023-05-24T15:43:19;18.10;1.00
8565;DHT22;4320;51.498;6.556;2023-05-24T15:45:45;18.10;1.00
8565;DHT22;4320;51.498;6.556;2023-05-24T15:48:11;18.10;1.00
8565;DHT22;4320;51.498;6.556;2023-05-24T15:50:38;18.10;1.00
8565;DHT22;4320;51.498;6.556;2023-05-24T15:53:04;18.20;1.00
8565;DHT22;4320;51.498;6.556;2023-05-24T15:55:30;18.20;1.00
8565;DHT22;4320;51.498;6.556;2023-05-24T15:57:58;18.20;1.00
8565;DHT22;4320;51.498;6.556;2023-05-24T16:00:24;18.20;1.00
8565;DHT22;4320;51.498;6.556;2023-05-24T16:02:50;18.20;1.00
8565;DHT22;4320;51.498;6.556;2023-05-24T16:05:16;18.20;1.00
8565;DHT22;4320;51.498;6.556;2023-05-24T16:07:42;18.20;1.00
8565;DHT22;4320;51.498;6.556;2023-05-24T16:10:08;18.20;1.00
8565;DHT22;4320;51.498;6.556;2023-05-24T16:12:33;18.30;1.00
8565;DHT22;4320;51.498;6.556;2023-05-24T16:14:59;18.40;1.00
8565;DHT22;4320;51.498;6.556;2023-05-24T16:17:25;18.50;1.00
8565;DHT22;4320;51.498;6.556;2023-05-24T16:19:51;18.60;1.00
8565;DHT22;4320;51.498;6.556;2023-05-24T16:22:17;18.70;1.00
8565;DHT22;4320;51.498;6.556;2023-05-24T16:24:43;18.80;1.00
8565;DHT22;4320;51.498;6.556;2023-05-24T16:27:09;18.70;1.00
8565;DHT22;4320;51.498;6.556;2023-05-24T16:29:35;18.70;1.00
8565;DHT22;4320;51.498;6.556;2023-05-24T16:32:01;18.70;1.00
8565;DHT22;4320;51.498;6.556;2023-05-24T16:34:27;18.70;1.00